Time;durP1;ratioP1;P1;durP2;ratioP2;P2;SDS_P1;SDS_P2;PMS_P1;PMS_P2;Temp;Humidity;BMP_temperature;BMP_pressure;BME280_temperature;BME280_humidity;BME280_pressure;Samples;Min_cycle;Max_cycle;Signal;HPM_P1;HPM_P2
2023/08/01 00:00:05;;;;;;;15.77;4.70;;;;;;;;;;5056519;28;20100;-66
2023/08/01 00:02:31;;;;;;;11.00;3.63;;;;;;;;;;5056289;28;20117;-66
2023/08/01 00:04:57;;;;;;;10.82;3.97;;;;;;;;;;5055673;28;20143;-65
2023/08/01 00:07:24;;;;;;;11.32;4.55;;;;;;;;;;5057438;28;20115;-65
2023/08/01 00:09:50;;;;;;;13.77;4.07;;;;;;;;;;5057538;28;20521;-65
2023/08/01 00:12:16;;;;;;;11.63;3.95;;;;;;;;;;5057519;28;20040;-66
2023/08/01 00:14:42;;;;;;;11.07;4.30;;;;;;;;;;5056304;28;20029;-66
2023/08/01 00:17:10;;;;;;;12.23;4.18;;;;;;;;;;5055882;28;20040;-66
2023/08/01 00:19:36;;;;;;;11.38;4.30;;;;;;;;;;5056251;28;21115;-66
2023/08/01 00:22:02;;;;;;;12.98;4.65;;;;;;;;;;5056238;28;20044;-66
2023/08/01 00:24:28;;;;;;;15.10;4.40;;;;;;;;;;5055050;28;20039;-65
2023/08/01 00:26:55;;;;;;;10.50;3.67;;;;;;;;;;5055896;28;20598;-65
2023/08/01 00:29:21;;;;;;;10.32;3.75;;;;;;;;;;5057139;28;20063;-66
2023/08/01 00:31:47;;;;;;;12.73;4.30;;;;;;;;;;5057053;28;20020;-65
2023/08/01 00:34:13;;;;;;;11.65;3.40;;;;;;;;;;5054144;28;20028;-66
2023/08/01 00:36:39;;;;;;;11.95;4.20;;;;;;;;;;5055498;28;20028;-65
2023/08/01 00:39:05;;;;;;;7.75;3.65;;;;;;;;;;5055605;28;20067;-66
2023/08/01 00:41:31;;;;;;;10.27;4.00;;;;;;;;;;5057744;28;20551;-66
2023/08/01 00:43:58;;;;;;;8.73;3.10;;;;;;;;;;5056757;28;20547;-66
2023/08/01 00:46:25;;;;;;;11.80;3.47;;;;;;;;;;5041391;28;20025;-66
2023/08/01 00:48:51;;;;;;;10.52;3.70;;;;;;;;;;5054864;28;20957;-66
2023/08/01 00:51:18;;;;;;;9.20;3.63;;;;;;;;;;5055197;28;20051;-66
2023/08/01 00:53:46;;;;;;;8.48;3.50;;;;;;;;;;5055855;28;20054;-66
2023/08/01 00:56:13;;;;;;;8.70;3.35;;;;;;;;;;5055819;28;20123;-66
2023/08/01 00:58:39;;;;;;;14.60;3.20;;;;;;;;;;5056448;28;20067;-66
2023/08/01 01:01:05;;;;;;;10.60;3.00;;;;;;;;;;5056599;28;20032;-65
2023/08/01 01:03:31;;;;;;;10.30;4.03;;;;;;;;;;5055521;28;20399;-66
2023/08/01 01:06:18;;;;;;;8.60;3.10;;;;;;;;;;5056615;28;20086;-66
2023/08/01 01:08:47;;;;;;;11.05;3.78;;;;;;;;;;5048268;28;20055;-66
2023/08/01 01:11:16;;;;;;;10.25;3.47;;;;;;;;;;5056947;28;20530;-65
2023/08/01 01:13:42;;;;;;;9.77;3.33;;;;;;;;;;5057178;28;20150;-66
2023/08/01 01:16:08;;;;;;;10.10;3.60;;;;;;;;;;5054753;28;20632;-66
2023/08/01 01:18:34;;;;;;;8.40;3.38;;;;;;;;;;5056392;28;20551;-66
2023/08/01 01:21:01;;;;;;;8.27;3.35;;;;;;;;;;5055184;28;20411;-66
2023/08/01 01:23:27;;;;;;;10.27;4.32;;;;;;;;;;5055849;28;20029;-66
2023/08/01 01:25:54;;;;;;;11.50;3.55;;;;;;;;;;5057089;28;20036;-66
2023/08/01 01:28:21;;;;;;;6.38;2.90;;;;;;;;;;5059273;28;20033;-66
2023/08/01 01:30:48;;;;;;;11.82;3.83;;;;;;;;;;5058483;28;20059;-66
2023/08/01 01:33:16;;;;;;;11.73;3.60;;;;;;;;;;5058653;28;20106;-66
2023/08/01 01:35:42;;;;;;;7.28;3.10;;;;;;;;;;5058275;28;20167;-65
2023/08/01 01:38:08;;;;;;;9.38;3.03;;;;;;;;;;5058693;28;20043;-65
2023/08/01 01:40:34;;;;;;;10.32;3.58;;;;;;;;;;5059670;28;20059;-66
2023/08/01 01:43:01;;;;;;;8.68;3.38;;;;;;;;;;5060164;28;20036;-66
2023/08/01 01:45:28;;;;;;;10.63;3.83;;;;;;;;;;5057863;28;20036;-66
2023/08/01 01:47:54;;;;;;;7.85;3.25;;;;;;;;;;5057951;28;20031;-65
2023/08/01 01:50:20;;;;;;;8.48;3.70;;;;;;;;;;5058124;28;20719;-66
2023/08/01 01:52:46;;;;;;;10.93;3.63;;;;;;;;;;5059791;28;20533;-65
2023/08/01 01:55:12;;;;;;;9.43;3.55;;;;;;;;;;5059217;28;20029;-65
2023/08/01 01:57:38;;;;;;;7.90;3.40;;;;;;;;;;5058417;28;20084;-65
2023/08/01 02:00:05;;;;;;;9.45;3.25;;;;;;;;;;5058082;28;20039;-65
2023/08/01 02:02:31;;;;;;;8.75;3.58;;;;;;;;;;5041092;28;20024;-65
2023/08/01 02:04:57;;;;;;;8.18;3.40;;;;;;;;;;5059645;28;20028;-65
2023/08/01 02:07:23;;;;;;;9.88;3.85;;;;;;;;;;5057815;28;20059;-65
2023/08/01 02:09:50;;;;;;;8.30;3.53;;;;;;;;;;5059089;28;20036;-65
2023/08/01 02:12:16;;;;;;;10.45;3.85;;;;;;;;;;5059077;28;20028;-66
2023/08/01 02:14:42;;;;;;;11.95;4.45;;;;;;;;;;5059058;28;20054;-66
2023/08/01 02:17:08;;;;;;;12.82;4.60;;;;;;;;;;5057327;28;20038;-66
2023/08/01 02:19:34;;;;;;;8.07;3.05;;;;;;;;;;5058635;28;20056;-66
2023/08/01 02:22:00;;;;;;;9.40;3.58;;;;;;;;;;5058589;28;20028;-66
2023/08/01 02:24:26;;;;;;;7.53;3.45;;;;;;;;;;5058404;28;20032;-65
2023/08/01 02:26:52;;;;;;;12.32;4.13;;;;;;;;;;5057033;28;20791;-66
2023/08/01 02:29:18;;;;;;;10.32;4.10;;;;;;;;;;5056341;28;20678;-66
2023/08/01 02:31:47;;;;;;;7.40;3.15;;;;;;;;;;5058215;28;20056;-66
2023/08/01 02:34:13;;;;;;;7.82;4.03;;;;;;;;;;5057639;28;20468;-66
2023/08/01 02:36:40;;;;;;;8.85;3.45;;;;;;;;;;5057104;28;20032;-66
2023/08/01 02:39:06;;;;;;;9.30;3.78;;;;;;;;;;5057977;28;20044;-66
2023/08/01 02:41:33;;;;;;;7.60;3.25;;;;;;;;;;5058188;28;20714;-66
2023/08/01 02:43:59;;;;;;;9.60;3.50;;;;;;;;;;5057643;28;21058;-66
2023/08/01 02:46:27;;;;;;;8.95;3.53;;;;;;;;;;5060161;28;21240;-65
2023/08/01 02:48:54;;;;;;;11.52;3.63;;;;;;;;;;5057971;28;21870;-65
2023/08/01 02:51:20;;;;;;;7.72;3.60;;;;;;;;;;5058680;28;20042;-65
2023/08/01 02:53:46;;;;;;;10.73;3.90;;;;;;;;;;5057903;28;20828;-65
2023/08/01 02:56:13;;;;;;;7.72;3.47;;;;;;;;;;5057624;28;20052;-65
2023/08/01 02:58:39;;;;;;;9.40;3.70;;;;;;;;;;5056351;28;20995;-65
2023/08/01 03:01:13;;;;;;;11.02;4.60;;;;;;;;;;5057999;28;20030;-66
2023/08/01 03:03:39;;;;;;;10.05;4.13;;;;;;;;;;5057190;28;20564;-65
2023/08/01 03:06:05;;;;;;;11.73;4.07;;;;;;;;;;5057841;28;20095;-66
2023/08/01 03:08:31;;;;;;;10.02;3.97;;;;;;;;;;5038220;28;20166;-66
2023/08/01 03:10:57;;;;;;;8.88;3.80;;;;;;;;;;5058026;28;20090;-66
2023/08/01 03:13:23;;;;;;;10.65;4.13;;;;;;;;;;5057771;28;20036;-66
2023/08/01 03:15:49;;;;;;;21.75;4.63;;;;;;;;;;5058172;28;20032;-65
2023/08/01 03:18:15;;;;;;;10.38;3.80;;;;;;;;;;5059736;28;20035;-65
2023/08/01 03:20:41;;;;;;;9.82;3.78;;;;;;;;;;5059241;28;20086;-65
2023/08/01 03:23:07;;;;;;;12.80;3.97;;;;;;;;;;5058890;28;20188;-65
2023/08/01 03:25:34;;;;;;;15.10;4.60;;;;;;;;;;5023214;28;20159;-65
2023/08/01 03:28:00;;;;;;;8.48;4.57;;;;;;;;;;5059266;28;20040;-65
2023/08/01 03:30:26;;;;;;;13.48;3.83;;;;;;;;;;5058202;28;20066;-65
2023/08/01 03:32:52;;;;;;;9.65;3.63;;;;;;;;;;5055857;28;20025;-64
2023/08/01 03:35:18;;;;;;;10.73;4.20;;;;;;;;;;5058258;28;20116;-65
2023/08/01 03:37:44;;;;;;;12.27;4.22;;;;;;;;;;5057824;28;20063;-64
2023/08/01 03:40:10;;;;;;;12.18;4.28;;;;;;;;;;5057260;28;20364;-65
2023/08/01 03:42:37;;;;;;;9.75;3.88;;;;;;;;;;5057649;28;20028;-65
2023/08/01 03:45:04;;;;;;;8.10;3.63;;;;;;;;;;5039186;28;20043;-65
2023/08/01 03:47:30;;;;;;;7.85;3.50;;;;;;;;;;5057147;28;20036;-65
2023/08/01 03:49:56;;;;;;;8.63;3.22;;;;;;;;;;5058254;28;20964;-64
2023/08/01 03:52:22;;;;;;;10.27;3.78;;;;;;;;;;5058527;28;20740;-64
2023/08/01 03:54:48;;;;;;;10.20;3.90;;;;;;;;;;5056607;28;20020;-64
2023/08/01 03:57:15;;;;;;;10.05;3.03;;;;;;;;;;5056765;28;20126;-65
2023/08/01 03:59:42;;;;;;;11.15;3.30;;;;;;;;;;5038680;28;20345;-64
2023/08/01 04:02:08;;;;;;;8.25;2.78;;;;;;;;;;5057542;28;20060;-65
2023/08/01 04:04:34;;;;;;;11.05;3.13;;;;;;;;;;5056279;28;20029;-65
2023/08/01 04:07:00;;;;;;;6.95;2.50;;;;;;;;;;5055331;28;20042;-64
2023/08/01 04:09:26;;;;;;;6.40;2.38;;;;;;;;;;5056488;28;20040;-64
2023/08/01 04:11:55;;;;;;;8.13;2.30;;;;;;;;;;5038115;28;20114;-65
2023/08/01 04:14:23;;;;;;;9.07;3.03;;;;;;;;;;5054711;28;20047;-65
2023/08/01 04:16:49;;;;;;;11.90;3.15;;;;;;;;;;5056867;28;20393;-64
2023/08/01 04:19:15;;;;;;;7.57;2.28;;;;;;;;;;5057716;28;20029;-64
2023/08/01 04:21:42;;;;;;;9.27;3.05;;;;;;;;;;5057577;28;20032;-64
2023/08/01 04:24:08;;;;;;;6.18;2.13;;;;;;;;;;5054199;28;20024;-64
2023/08/01 04:26:34;;;;;;;8.55;2.05;;;;;;;;;;5056550;28;20681;-64
2023/08/01 04:29:00;;;;;;;8.23;2.38;;;;;;;;;;5055535;28;20040;-64
2023/08/01 04:31:26;;;;;;;11.60;2.55;;;;;;;;;;5055978;28;20097;-64
2023/08/01 04:33:52;;;;;;;9.35;2.60;;;;;;;;;;5055608;28;20032;-64
2023/08/01 04:36:20;;;;;;;7.47;2.33;;;;;;;;;;5055688;28;20116;-64
2023/08/01 04:38:46;;;;;;;10.80;2.42;;;;;;;;;;5055794;28;21711;-64
2023/08/01 04:41:12;;;;;;;11.13;2.50;;;;;;;;;;5056651;28;20039;-64
2023/08/01 04:43:38;;;;;;;7.82;1.92;;;;;;;;;;5055391;28;20032;-64
2023/08/01 04:46:04;;;;;;;7.68;2.00;;;;;;;;;;5056826;28;20032;-64
2023/08/01 04:48:31;;;;;;;4.97;1.70;;;;;;;;;;5056236;28;20064;-64
2023/08/01 04:50:57;;;;;;;5.43;1.95;;;;;;;;;;5055465;28;20043;-65
2023/08/01 04:53:23;;;;;;;7.03;2.00;;;;;;;;;;5058185;28;20048;-65
2023/08/01 04:55:49;;;;;;;5.88;1.88;;;;;;;;;;5055125;28;20036;-64
2023/08/01 04:58:15;;;;;;;6.72;1.92;;;;;;;;;;5056572;28;20035;-64
2023/08/01 05:00:41;;;;;;;6.90;1.73;;;;;;;;;;5054271;28;20039;-64
2023/08/01 05:03:07;;;;;;;10.05;2.08;;;;;;;;;;5055121;28;20045;-64
2023/08/01 05:05:33;;;;;;;8.60;2.45;;;;;;;;;;5054373;28;20151;-64
2023/08/01 05:08:00;;;;;;;7.07;1.50;;;;;;;;;;5055461;28;20560;-64
2023/08/01 05:10:26;;;;;;;7.68;2.08;;;;;;;;;;5055562;28;20625;-64
2023/08/01 05:12:52;;;;;;;12.38;2.60;;;;;;;;;;5055390;28;20526;-64
2023/08/01 05:15:18;;;;;;;6.05;1.65;;;;;;;;;;5056091;28;20028;-64
2023/08/01 05:17:44;;;;;;;6.53;1.98;;;;;;;;;;5056711;28;20025;-64
2023/08/01 05:20:10;;;;;;;7.43;1.85;;;;;;;;;;5055633;28;20470;-65
2023/08/01 05:22:36;;;;;;;6.97;1.80;;;;;;;;;;5056737;28;20498;-64
2023/08/01 05:25:03;;;;;;;8.27;2.50;;;;;;;;;;5056044;28;20028;-64
2023/08/01 05:27:29;;;;;;;8.52;1.70;;;;;;;;;;5056329;28;20021;-64
2023/08/01 05:29:55;;;;;;;9.43;2.30;;;;;;;;;;5056207;28;20115;-65
2023/08/01 05:32:22;;;;;;;5.90;2.20;;;;;;;;;;5054999;28;20020;-65
2023/08/01 05:34:48;;;;;;;7.20;1.75;;;;;;;;;;5054758;28;20036;-64
2023/08/01 05:37:14;;;;;;;7.75;1.92;;;;;;;;;;5056603;28;20037;-64
2023/08/01 05:39:40;;;;;;;5.28;1.70;;;;;;;;;;5056196;28;20119;-64
2023/08/01 05:42:08;;;;;;;7.95;2.15;;;;;;;;;;5055587;28;20111;-64
2023/08/01 05:44:34;;;;;;;8.90;1.88;;;;;;;;;;5055696;28;20032;-65
2023/08/01 05:47:00;;;;;;;12.00;2.63;;;;;;;;;;5055205;28;20043;-64
2023/08/01 05:49:28;;;;;;;10.25;2.33;;;;;;;;;;5055806;28;20032;-65
2023/08/01 05:51:54;;;;;;;5.90;2.20;;;;;;;;;;5057284;28;20653;-65
2023/08/01 05:54:20;;;;;;;5.85;2.10;;;;;;;;;;5056155;28;21165;-64
2023/08/01 05:56:46;;;;;;;6.13;2.00;;;;;;;;;;5056408;28;21713;-65
2023/08/01 05:59:12;;;;;;;8.57;2.28;;;;;;;;;;5055117;28;20102;-65
2023/08/01 06:01:38;;;;;;;6.72;2.30;;;;;;;;;;5056199;28;20122;-65
2023/08/01 06:04:04;;;;;;;6.80;2.33;;;;;;;;;;5055167;28;20041;-64
2023/08/01 06:06:30;;;;;;;8.35;2.30;;;;;;;;;;5056460;28;20075;-65
2023/08/01 06:08:56;;;;;;;6.03;1.80;;;;;;;;;;5055138;28;21670;-64
2023/08/01 06:11:23;;;;;;;5.95;2.30;;;;;;;;;;5038135;28;20084;-64
2023/08/01 06:13:49;;;;;;;5.93;1.83;;;;;;;;;;5056325;28;20036;-64
2023/08/01 06:16:15;;;;;;;7.68;2.15;;;;;;;;;;5053833;28;20032;-64
2023/08/01 06:18:41;;;;;;;6.38;2.00;;;;;;;;;;5055581;28;20046;-64
2023/08/01 06:21:07;;;;;;;5.82;2.00;;;;;;;;;;5058942;28;20585;-64
2023/08/01 06:23:33;;;;;;;7.88;2.40;;;;;;;;;;5059664;28;20063;-65
2023/08/01 06:25:59;;;;;;;7.65;2.03;;;;;;;;;;5052373;28;20036;-64
2023/08/01 06:28:25;;;;;;;6.70;1.80;;;;;;;;;;5057427;28;20032;-64
2023/08/01 06:30:51;;;;;;;6.10;2.35;;;;;;;;;;5056060;28;20121;-64
2023/08/01 06:33:17;;;;;;;5.22;1.92;;;;;;;;;;5056923;28;20032;-64
2023/08/01 06:35:44;;;;;;;6.32;1.80;;;;;;;;;;5038914;28;20039;-64
2023/08/01 06:38:10;;;;;;;5.63;1.60;;;;;;;;;;5057917;28;20395;-64
2023/08/01 06:40:36;;;;;;;6.40;1.92;;;;;;;;;;5057171;28;21897;-64
2023/08/01 06:43:02;;;;;;;5.50;1.77;;;;;;;;;;5056371;28;20040;-64
2023/08/01 06:45:28;;;;;;;5.15;1.50;;;;;;;;;;5058150;28;20127;-64
2023/08/01 06:47:54;;;;;;;5.18;1.60;;;;;;;;;;5057357;28;20017;-64
2023/08/01 06:50:20;;;;;;;4.63;1.33;;;;;;;;;;5054504;28;20130;-64
2023/08/01 06:52:46;;;;;;;7.07;1.70;;;;;;;;;;5055654;28;20028;-64
2023/08/01 06:55:12;;;;;;;5.32;1.70;;;;;;;;;;5054028;28;20771;-64
2023/08/01 06:57:38;;;;;;;5.65;1.55;;;;;;;;;;5050185;28;20066;-64
2023/08/01 07:00:05;;;;;;;4.78;1.80;;;;;;;;;;5054704;28;20039;-64
2023/08/01 07:02:31;;;;;;;7.43;1.70;;;;;;;;;;5055625;28;20114;-64
2023/08/01 07:04:57;;;;;;;7.03;1.88;;;;;;;;;;5054940;28;20155;-64
2023/08/01 07:07:23;;;;;;;8.50;1.95;;;;;;;;;;5058815;28;20067;-64
2023/08/01 07:09:49;;;;;;;5.97;1.92;;;;;;;;;;5038720;28;20040;-64
2023/08/01 07:12:15;;;;;;;8.57;2.17;;;;;;;;;;5056794;28;20189;-65
2023/08/01 07:14:41;;;;;;;8.02;1.95;;;;;;;;;;5058176;28;20052;-63
2023/08/01 07:17:07;;;;;;;5.47;1.70;;;;;;;;;;5058792;28;20036;-63
2023/08/01 07:19:33;;;;;;;6.45;1.65;;;;;;;;;;5058615;28;20869;-63
2023/08/01 07:21:59;;;;;;;6.13;1.33;;;;;;;;;;5057730;28;20858;-64
2023/08/01 07:24:26;;;;;;;6.80;1.65;;;;;;;;;;5057847;28;20028;-64
2023/08/01 07:26:52;;;;;;;9.25;1.48;;;;;;;;;;5058030;28;20039;-63
2023/08/01 07:29:18;;;;;;;6.38;1.45;;;;;;;;;;5058828;28;20033;-64
2023/08/01 07:31:46;;;;;;;8.55;1.27;;;;;;;;;;5059118;28;20033;-64
2023/08/01 07:34:13;;;;;;;7.47;1.30;;;;;;;;;;5058540;28;20121;-63
2023/08/01 07:36:39;;;;;;;6.63;1.30;;;;;;;;;;5056320;28;20028;-64
2023/08/01 07:39:05;;;;;;;6.50;1.33;;;;;;;;;;5055698;28;20041;-64
2023/08/01 07:41:33;;;;;;;11.13;1.80;;;;;;;;;;5057628;28;20130;-64
2023/08/01 07:43:59;;;;;;;8.68;1.50;;;;;;;;;;5055082;28;20154;-64
2023/08/01 07:46:25;;;;;;;7.75;1.58;;;;;;;;;;5057480;28;20094;-64
2023/08/01 07:48:53;;;;;;;10.27;1.50;;;;;;;;;;5058036;28;20094;-64
2023/08/01 07:51:19;;;;;;;5.07;1.10;;;;;;;;;;5058578;28;20033;-64
2023/08/01 07:53:45;;;;;;;8.80;1.70;;;;;;;;;;5054301;28;20037;-64
2023/08/01 07:56:11;;;;;;;8.32;1.30;;;;;;;;;;5035475;28;20024;-64
2023/08/01 07:58:37;;;;;;;4.57;1.27;;;;;;;;;;5058309;28;20025;-65
2023/08/01 08:01:04;;;;;;;6.40;1.50;;;;;;;;;;5057609;28;20044;-65
2023/08/01 08:03:30;;;;;;;6.65;1.42;;;;;;;;;;5057765;28;20077;-65
2023/08/01 08:05:56;;;;;;;8.18;1.13;;;;;;;;;;5041094;28;20020;-65
2023/08/01 08:08:22;;;;;;;4.53;1.00;;;;;;;;;;5057232;28;20160;-65
2023/08/01 08:10:48;;;;;;;4.97;1.30;;;;;;;;;;5057732;28;20125;-66
2023/08/01 08:13:14;;;;;;;4.30;1.30;;;;;;;;;;5057708;28;20070;-66
2023/08/01 08:15:41;;;;;;;4.85;1.20;;;;;;;;;;5058033;28;20025;-66
2023/08/01 08:18:07;;;;;;;4.07;1.27;;;;;;;;;;5058081;28;20078;-67
2023/08/01 08:20:35;;;;;;;9.00;1.58;;;;;;;;;;5055853;28;20033;-66
2023/08/01 08:23:01;;;;;;;8.43;1.77;;;;;;;;;;5057438;28;20435;-66
2023/08/01 08:25:27;;;;;;;7.80;1.50;;;;;;;;;;5041174;28;20037;-67
2023/08/01 08:27:54;;;;;;;4.57;1.17;;;;;;;;;;5046986;28;20041;-66
2023/08/01 08:30:20;;;;;;;6.18;1.50;;;;;;;;;;5037635;28;20082;-66
2023/08/01 08:32:46;;;;;;;4.20;0.95;;;;;;;;;;5055011;28;20034;-66
2023/08/01 08:35:12;;;;;;;7.50;1.20;;;;;;;;;;5054322;28;20032;-66
2023/08/01 08:37:38;;;;;;;10.13;1.70;;;;;;;;;;5054233;28;20033;-66
2023/08/01 08:40:04;;;;;;;4.70;1.00;;;;;;;;;;5055320;28;20131;-67
2023/08/01 08:42:31;;;;;;;6.95;1.52;;;;;;;;;;5053350;28;20372;-66
2023/08/01 08:44:59;;;;;;;6.55;1.70;;;;;;;;;;5056278;28;20036;-66
2023/08/01 08:47:26;;;;;;;5.50;1.73;;;;;;;;;;5055093;28;20032;-66
2023/08/01 08:49:53;;;;;;;8.32;1.60;;;;;;;;;;5055745;28;20086;-66
2023/08/01 08:52:19;;;;;;;7.88;1.60;;;;;;;;;;5056786;28;20032;-66
2023/08/01 08:54:45;;;;;;;7.13;1.38;;;;;;;;;;5055699;28;20025;-66
2023/08/01 08:57:12;;;;;;;6.80;1.70;;;;;;;;;;5040146;28;20044;-66
2023/08/01 08:59:38;;;;;;;6.45;1.40;;;;;;;;;;5055554;28;20579;-66
2023/08/01 09:02:05;;;;;;;8.32;1.38;;;;;;;;;;5054805;28;20836;-66
2023/08/01 09:04:32;;;;;;;6.45;1.40;;;;;;;;;;5054289;28;20025;-66
2023/08/01 09:07:03;;;;;;;7.78;1.83;;;;;;;;;;5052098;28;20048;-66
2023/08/01 09:09:29;;;;;;;6.18;1.67;;;;;;;;;;5055765;28;20111;-66
2023/08/01 09:11:58;;;;;;;8.32;1.58;;;;;;;;;;5049924;28;21003;-66
2023/08/01 09:14:24;;;;;;;6.57;1.50;;;;;;;;;;5055041;28;20043;-66
2023/08/01 09:16:50;;;;;;;7.68;2.55;;;;;;;;;;5055385;28;20038;-66
2023/08/01 09:19:17;;;;;;;7.10;1.73;;;;;;;;;;5056469;28;20510;-66
2023/08/01 09:21:43;;;;;;;5.18;1.13;;;;;;;;;;5056914;28;20117;-66
2023/08/01 09:24:10;;;;;;;8.05;1.52;;;;;;;;;;5056696;28;20128;-66
2023/08/01 09:26:36;;;;;;;4.68;1.15;;;;;;;;;;5056490;28;20025;-66
2023/08/01 09:29:02;;;;;;;6.03;1.50;;;;;;;;;;5055310;28;20114;-66
2023/08/01 09:31:36;;;;;;;6.35;1.88;;;;;;;;;;5056487;28;20072;-66
2023/08/01 09:34:05;;;;;;;;;;;;;;;;;;5057278;28;20031;-66
2023/08/01 09:36:31;;;;;;;7.50;1.70;;;;;;;;;;5055704;28;19923;-66
2023/08/01 09:39:01;;;;;;;7.25;1.50;;;;;;;;;;5054077;28;20064;-66
2023/08/01 09:41:27;;;;;;;7.43;1.55;;;;;;;;;;5042340;28;20119;-67
2023/08/01 09:43:54;;;;;;;7.45;1.55;;;;;;;;;;5045198;28;20384;-67
2023/08/01 09:46:20;;;;;;;6.60;1.42;;;;;;;;;;5046483;28;20391;-66
2023/08/01 09:48:46;;;;;;;7.25;1.70;;;;;;;;;;5047960;28;20098;-65
2023/08/01 09:51:13;;;;;;;7.20;1.60;;;;;;;;;;5046460;28;20032;-66
2023/08/01 09:53:49;;;;;;;8.68;1.75;;;;;;;;;;5048122;28;20154;-66
2023/08/01 09:56:16;;;;;;;3.95;1.30;;;;;;;;;;5048159;28;20506;-66
2023/08/01 09:58:43;;;;;;;6.78;2.17;;;;;;;;;;5046352;28;20080;-66
2023/08/01 10:01:09;;;;;;;4.20;1.10;;;;;;;;;;5047963;28;20045;-66
2023/08/01 10:03:36;;;;;;;6.28;1.52;;;;;;;;;;5048728;28;20036;-66
2023/08/01 10:06:02;;;;;;;7.35;1.40;;;;;;;;;;5048632;28;20040;-66
2023/08/01 10:08:32;;;;;;;7.82;1.10;;;;;;;;;;5049806;28;20039;-66
2023/08/01 10:10:58;;;;;;;5.28;1.25;;;;;;;;;;5046409;28;20036;-66
2023/08/01 10:13:24;;;;;;;9.68;1.58;;;;;;;;;;5025884;28;20155;-66
2023/08/01 10:15:51;;;;;;;5.68;1.73;;;;;;;;;;5044003;28;20029;-67
2023/08/01 10:18:18;;;;;;;8.13;1.50;;;;;;;;;;5028768;28;20020;-66
2023/08/01 10:20:44;;;;;;;6.15;1.38;;;;;;;;;;5044934;28;20040;-66
2023/08/01 10:23:11;;;;;;;3.53;1.00;;;;;;;;;;5047849;28;20115;-66
2023/08/01 10:25:38;;;;;;;9.32;1.60;;;;;;;;;;5046818;28;20128;-67
2023/08/01 10:28:06;;;;;;;8.18;1.77;;;;;;;;;;5048000;28;20038;-67
2023/08/01 10:30:32;;;;;;;6.15;1.65;;;;;;;;;;5047194;28;20029;-67
2023/08/01 10:32:59;;;;;;;6.40;1.17;;;;;;;;;;5044283;28;20116;-66
2023/08/01 10:35:35;;;;;;;9.95;1.55;;;;;;;;;;5046012;28;20052;-66
2023/08/01 10:38:04;;;;;;;6.50;1.20;;;;;;;;;;5045322;28;20024;-67
2023/08/01 10:40:34;;;;;;;17.48;2.53;;;;;;;;;;5045325;28;20123;-67
2023/08/01 10:43:00;;;;;;;9.70;1.30;;;;;;;;;;5046911;28;21222;-67
2023/08/01 10:45:28;;;;;;;4.40;1.20;;;;;;;;;;5044872;28;20051;-67
2023/08/01 10:47:54;;;;;;;4.38;1.33;;;;;;;;;;5044250;28;20672;-68
2023/08/01 10:50:21;;;;;;;9.13;1.27;;;;;;;;;;5044608;28;20032;-67
2023/08/01 10:52:47;;;;;;;5.68;1.00;;;;;;;;;;5043922;28;20375;-67
2023/08/01 10:55:13;;;;;;;7.35;1.42;;;;;;;;;;5044298;28;20158;-67
2023/08/01 10:57:40;;;;;;;6.63;1.25;;;;;;;;;;5044203;28;20510;-67
2023/08/01 11:00:09;;;;;;;5.28;1.27;;;;;;;;;;5046530;28;20058;-67
2023/08/01 11:02:36;;;;;;;5.88;1.75;;;;;;;;;;5046078;28;20110;-67
2023/08/01 11:05:03;;;;;;;6.97;2.03;;;;;;;;;;5045372;28;21749;-67
2023/08/01 11:07:29;;;;;;;4.82;1.08;;;;;;;;;;5045655;28;20067;-67
2023/08/01 11:10:22;;;;;;;4.90;1.40;;;;;;;;;;5044647;28;21741;-67
2023/08/01 11:12:48;;;;;;;2.53;0.80;;;;;;;;;;5044713;28;20044;-67
2023/08/01 11:15:15;;;;;;;7.43;2.03;;;;;;;;;;5048357;28;20064;-67
2023/08/01 11:17:42;;;;;;;5.13;1.20;;;;;;;;;;5047838;28;20617;-67
2023/08/01 11:20:09;;;;;;;7.07;1.23;;;;;;;;;;5048693;28;20109;-67
2023/08/01 11:22:36;;;;;;;5.47;1.35;;;;;;;;;;5048032;28;20024;-67
2023/08/01 11:25:02;;;;;;;5.45;1.20;;;;;;;;;;5048047;28;21418;-67
2023/08/01 11:27:28;;;;;;;6.32;1.20;;;;;;;;;;5044307;28;20032;-67
2023/08/01 11:29:55;;;;;;;4.60;0.90;;;;;;;;;;5044860;28;20031;-67
2023/08/01 11:32:22;;;;;;;5.88;1.00;;;;;;;;;;5043093;28;21776;-67
2023/08/01 11:34:51;;;;;;;5.18;1.10;;;;;;;;;;5042505;28;20028;-68
2023/08/01 11:37:20;;;;;;;7.75;1.42;;;;;;;;;;5045720;28;20097;-67
2023/08/01 11:39:46;;;;;;;5.82;1.00;;;;;;;;;;5045599;28;20024;-68
2023/08/01 11:42:18;;;;;;;5.45;1.30;;;;;;;;;;5047707;28;20036;-67
2023/08/01 11:44:45;;;;;;;6.70;1.20;;;;;;;;;;5046614;28;20087;-67
2023/08/01 11:47:15;;;;;;;4.60;1.48;;;;;;;;;;5044753;28;20696;-67
2023/08/01 11:49:46;;;;;;;5.75;1.75;;;;;;;;;;5045903;28;20060;-68
2023/08/01 11:52:22;;;;;;;7.55;0.85;;;;;;;;;;5044022;28;20680;-67
2023/08/01 11:54:48;;;;;;;6.55;1.42;;;;;;;;;;5044012;28;20113;-67
2023/08/01 11:57:14;;;;;;;6.68;1.20;;;;;;;;;;5045178;28;20063;-67
2023/08/01 11:59:47;;;;;;;7.40;1.40;;;;;;;;;;5043901;28;20025;-69
2023/08/01 12:02:21;;;;;;;5.90;1.08;;;;;;;;;;5046835;28;20175;-68
2023/08/01 12:04:47;;;;;;;7.93;1.23;;;;;;;;;;5044551;28;20051;-67
2023/08/01 12:07:16;;;;;;;6.00;1.23;;;;;;;;;;5043935;28;20036;-67
2023/08/01 12:09:43;;;;;;;9.30;1.63;;;;;;;;;;5044795;28;20024;-67
2023/08/01 12:12:09;;;;;;;4.15;1.08;;;;;;;;;;5044032;28;20032;-68
2023/08/01 12:14:41;;;;;;;7.45;1.38;;;;;;;;;;5045414;28;20067;-67
2023/08/01 12:17:08;;;;;;;6.47;1.67;;;;;;;;;;5044946;28;20024;-67
2023/08/01 12:19:34;;;;;;;10.55;2.15;;;;;;;;;;5046198;28;20028;-67
2023/08/01 12:22:00;;;;;;;11.35;2.40;;;;;;;;;;5044291;28;21141;-67
2023/08/01 12:24:26;;;;;;;6.47;1.27;;;;;;;;;;5046679;28;20126;-67
2023/08/01 12:26:52;;;;;;;6.53;1.65;;;;;;;;;;5044899;28;20071;-67
2023/08/01 12:29:18;;;;;;;5.72;1.52;;;;;;;;;;5043056;28;20022;-67
2023/08/01 12:31:45;;;;;;;7.80;1.88;;;;;;;;;;5043476;28;21041;-67
2023/08/01 12:34:11;;;;;;;8.50;1.80;;;;;;;;;;5042923;28;20036;-67
2023/08/01 12:36:37;;;;;;;7.85;1.88;;;;;;;;;;5045031;28;20124;-67
2023/08/01 12:39:04;;;;;;;9.40;2.13;;;;;;;;;;5042142;28;20086;-67
2023/08/01 12:41:31;;;;;;;6.53;1.25;;;;;;;;;;5044578;28;20040;-67
2023/08/01 12:43:57;;;;;;;6.75;1.92;;;;;;;;;;5045619;28;20055;-67
2023/08/01 12:46:23;;;;;;;4.90;1.30;;;;;;;;;;5046771;28;20090;-67
2023/08/01 12:48:49;;;;;;;7.40;1.58;;;;;;;;;;5042622;28;20044;-67
2023/08/01 12:51:15;;;;;;;7.57;1.58;;;;;;;;;;5026207;28;20033;-67
2023/08/01 12:53:41;;;;;;;6.65;1.48;;;;;;;;;;5045743;28;20139;-67
2023/08/01 12:56:08;;;;;;;7.07;1.50;;;;;;;;;;5046161;28;20032;-67
2023/08/01 12:58:34;;;;;;;7.47;1.45;;;;;;;;;;5043498;28;20158;-67
2023/08/01 13:01:03;;;;;;;6.10;1.33;;;;;;;;;;5044238;28;20035;-67
2023/08/01 13:03:29;;;;;;;6.65;1.30;;;;;;;;;;5043881;28;20760;-67
2023/08/01 13:05:57;;;;;;;7.47;1.65;;;;;;;;;;5024015;28;21817;-67
2023/08/01 13:08:23;;;;;;;7.45;1.70;;;;;;;;;;5043862;28;21705;-67
2023/08/01 13:10:49;;;;;;;5.85;1.40;;;;;;;;;;5043353;28;20048;-67
2023/08/01 13:13:16;;;;;;;5.53;1.35;;;;;;;;;;5043204;28;20071;-67
2023/08/01 13:15:45;;;;;;;5.10;0.98;;;;;;;;;;5043722;28;20032;-67
2023/08/01 13:18:11;;;;;;;5.63;1.10;;;;;;;;;;5045446;28;20048;-67
2023/08/01 13:20:37;;;;;;;4.65;0.88;;;;;;;;;;5029465;28;20130;-68
2023/08/01 13:23:04;;;;;;;5.15;1.20;;;;;;;;;;5031419;28;20060;-68
2023/08/01 13:25:30;;;;;;;4.55;1.20;;;;;;;;;;5045598;28;20082;-68
2023/08/01 13:27:56;;;;;;;4.13;1.35;;;;;;;;;;5045887;28;20024;-68
2023/08/01 13:30:22;;;;;;;5.88;1.50;;;;;;;;;;5047514;28;20039;-68
2023/08/01 13:32:48;;;;;;;6.35;1.23;;;;;;;;;;5047514;28;20028;-67
2023/08/01 13:35:15;;;;;;;3.95;1.10;;;;;;;;;;5044669;28;20488;-67
2023/08/01 13:37:41;;;;;;;6.25;1.25;;;;;;;;;;5046189;28;20043;-67
2023/08/01 13:40:08;;;;;;;4.90;1.02;;;;;;;;;;5045592;28;20025;-67
2023/08/01 13:42:34;;;;;;;3.20;1.00;;;;;;;;;;5048754;28;20032;-67
2023/08/01 13:45:01;;;;;;;6.80;1.60;;;;;;;;;;5048796;28;20557;-67
2023/08/01 13:47:27;;;;;;;14.63;2.08;;;;;;;;;;5048125;28;20028;-67
2023/08/01 13:49:53;;;;;;;5.78;0.90;;;;;;;;;;5047639;28;20071;-67
2023/08/01 13:52:19;;;;;;;6.95;1.80;;;;;;;;;;5049103;28;20036;-67
2023/08/01 13:54:45;;;;;;;7.50;0.88;;;;;;;;;;5050211;28;20029;-67
2023/08/01 13:57:11;;;;;;;5.03;0.77;;;;;;;;;;5047627;28;20044;-67
2023/08/01 13:59:37;;;;;;;4.45;0.82;;;;;;;;;;5049021;28;20025;-67
2023/08/01 14:02:04;;;;;;;4.78;1.20;;;;;;;;;;5048318;28;20144;-67
2023/08/01 14:04:30;;;;;;;4.10;0.80;;;;;;;;;;5028456;28;20033;-67
2023/08/01 14:06:56;;;;;;;4.45;1.20;;;;;;;;;;5048797;28;20746;-68
2023/08/01 14:09:22;;;;;;;5.88;1.13;;;;;;;;;;5048765;28;20025;-67
2023/08/01 14:11:48;;;;;;;6.13;1.20;;;;;;;;;;5048439;28;20051;-67
2023/08/01 14:14:14;;;;;;;5.78;1.00;;;;;;;;;;5046010;28;20063;-67
2023/08/01 14:16:40;;;;;;;6.97;0.93;;;;;;;;;;5048734;28;20036;-67
2023/08/01 14:19:06;;;;;;;5.22;1.00;;;;;;;;;;5030297;28;20064;-67
2023/08/01 14:21:34;;;;;;;4.20;0.80;;;;;;;;;;5046557;28;20054;-67
2023/08/01 14:24:00;;;;;;;6.95;1.38;;;;;;;;;;5046321;28;20028;-67
2023/08/01 14:26:26;;;;;;;3.63;0.88;;;;;;;;;;5048170;28;20043;-67
2023/08/01 14:28:52;;;;;;;6.43;1.02;;;;;;;;;;5045652;28;20032;-68
2023/08/01 14:31:18;;;;;;;7.28;1.58;;;;;;;;;;5046200;28;20448;-67
2023/08/01 14:33:44;;;;;;;10.15;0.98;;;;;;;;;;5042472;28;20032;-67
2023/08/01 14:36:12;;;;;;;4.75;1.05;;;;;;;;;;5046049;28;20032;-67